sensor_id;sensor_type;location;lat;lon;timestamp;P1;durP1;ratioP1;P2;durP2;ratioP2
5878;SDS011;2965;42.640;23.370;2023-07-31T04:02:22;37.40;;;24.20;;
5878;SDS011;2965;42.640;23.370;2023-07-31T04:04:47;40.03;;;27.10;;
5878;SDS011;2965;42.640;23.370;2023-07-31T04:07:12;36.70;;;23.83;;
5878;SDS011;2965;42.640;23.370;2023-07-31T04:09:38;32.43;;;21.73;;
5878;SDS011;2965;42.640;23.370;2023-07-31T04:12:03;39.47;;;26.53;;
5878;SDS011;2965;42.640;23.370;2023-07-31T04:14:29;40.83;;;26.23;;
5878;SDS011;2965;42.640;23.370;2023-07-31T04:16:54;39.53;;;24.97;;
5878;SDS011;2965;42.640;23.370;2023-07-31T04:19:19;34.57;;;24.40;;
5878;SDS011;2965;42.640;23.370;2023-07-31T04:21:45;43.13;;;25.90;;
5878;SDS011;2965;42.640;23.370;2023-07-31T04:24:10;33.57;;;25.07;;
5878;SDS011;2965;42.640;23.370;2023-07-31T04:26:35;45.50;;;27.60;;
5878;SDS011;2965;42.640;23.370;2023-07-31T04:29:01;42.80;;;28.27;;
5878;SDS011;2965;42.640;23.370;2023-07-31T04:31:26;42.10;;;28.00;;
5878;SDS011;2965;42.640;23.370;2023-07-31T04:33:51;44.03;;;29.20;;
5878;SDS011;2965;42.640;23.370;2023-07-31T04:36:17;41.00;;;26.33;;
5878;SDS011;2965;42.640;23.370;2023-07-31T04:38:42;38.57;;;24.73;;
5878;SDS011;2965;42.640;23.370;2023-07-31T04:41:08;47.77;;;27.20;;
5878;SDS011;2965;42.640;23.370;2023-07-31T04:43:33;37.40;;;26.33;;
5878;SDS011;2965;42.640;23.370;2023-07-31T04:45:59;35.37;;;25.20;;
5878;SDS011;2965;42.640;23.370;2023-07-31T04:48:24;37.10;;;25.30;;
5878;SDS011;2965;42.640;23.370;2023-07-31T04:50:49;34.67;;;24.13;;
5878;SDS011;2965;42.640;23.370;2023-07-31T04:53:15;34.33;;;23.00;;
5878;SDS011;2965;42.640;23.370;2023-07-31T04:55:40;35.53;;;23.83;;
5878;SDS011;2965;42.640;23.370;2023-07-31T04:58:06;39.33;;;23.03;;
5878;SDS011;2965;42.640;23.370;2023-07-31T05:00:31;29.93;;;22.17;;
5878;SDS011;2965;42.640;23.370;2023-07-31T05:02:57;34.40;;;22.00;;
5878;SDS011;2965;42.640;23.370;2023-07-31T05:05:22;36.30;;;22.97;;
5878;SDS011;2965;42.640;23.370;2023-07-31T05:07:47;34.07;;;21.27;;
5878;SDS011;2965;42.640;23.370;2023-07-31T05:10:13;29.03;;;20.80;;
5878;SDS011;2965;42.640;23.370;2023-07-31T05:12:38;29.50;;;21.50;;
5878;SDS011;2965;42.640;23.370;2023-07-31T05:15:04;37.67;;;24.03;;
5878;SDS011;2965;42.640;23.370;2023-07-31T05:17:29;36.17;;;22.90;;
5878;SDS011;2965;42.640;23.370;2023-07-31T05:19:55;27.17;;;21.20;;
5878;SDS011;2965;42.640;23.370;2023-07-31T05:22:20;31.27;;;21.20;;
5878;SDS011;2965;42.640;23.370;2023-07-31T05:24:45;27.43;;;20.63;;
5878;SDS011;2965;42.640;23.370;2023-07-31T05:27:11;35.33;;;24.17;;
5878;SDS011;2965;42.640;23.370;2023-07-31T05:29:37;30.60;;;22.53;;
5878;SDS011;2965;42.640;23.370;2023-07-31T05:32:03;34.60;;;21.63;;
5878;SDS011;2965;42.640;23.370;2023-07-31T05:34:29;30.87;;;20.60;;
5878;SDS011;2965;42.640;23.370;2023-07-31T05:36:54;32.27;;;19.33;;
5878;SDS011;2965;42.640;23.370;2023-07-31T05:39:19;30.10;;;19.77;;
5878;SDS011;2965;42.640;23.370;2023-07-31T05:41:45;32.23;;;17.27;;
5878;SDS011;2965;42.640;23.370;2023-07-31T05:44:10;24.93;;;19.30;;
5878;SDS011;2965;42.640;23.370;2023-07-31T05:46:36;21.50;;;16.97;;
5878;SDS011;2965;42.640;23.370;2023-07-31T05:49:02;26.30;;;17.63;;
5878;SDS011;2965;42.640;23.370;2023-07-31T05:51:27;22.23;;;17.67;;
5878;SDS011;2965;42.640;23.370;2023-07-31T05:53:53;15.77;;;13.20;;
5878;SDS011;2965;42.640;23.370;2023-07-31T05:56:18;20.03;;;16.20;;
5878;SDS011;2965;42.640;23.370;2023-07-31T05:58:44;14.47;;;13.10;;
5878;SDS011;2965;42.640;23.370;2023-07-31T06:01:09;15.13;;;13.10;;
5878;SDS011;2965;42.640;23.370;2023-07-31T06:03:34;14.90;;;12.67;;
5878;SDS011;2965;42.640;23.370;2023-07-31T06:06:00;13.50;;;11.23;;
5878;SDS011;2965;42.640;23.370;2023-07-31T06:08:25;10.93;;;9.90;;
5878;SDS011;2965;42.640;23.370;2023-07-31T06:10:50;10.73;;;9.83;;
5878;SDS011;2965;42.640;23.370;2023-07-31T06:13:16;12.90;;;10.27;;
5878;SDS011;2965;42.640;23.370;2023-07-31T06:15:41;10.03;;;9.33;;
5878;SDS011;2965;42.640;23.370;2023-07-31T06:18:06;10.47;;;9.47;;
5878;SDS011;2965;42.640;23.370;2023-07-31T06:20:33;10.57;;;9.67;;
5878;SDS011;2965;42.640;23.370;2023-07-31T06:22:59;10.57;;;9.67;;
5878;SDS011;2965;42.640;23.370;2023-07-31T06:25:24;10.77;;;9.70;;
5878;SDS011;2965;42.640;23.370;2023-07-31T06:27:50;9.13;;;8.23;;
5878;SDS011;2965;42.640;23.370;2023-07-31T06:30:15;8.23;;;7.63;;
5878;SDS011;2965;42.640;23.370;2023-07-31T06:32:41;6.83;;;6.43;;
5878;SDS011;2965;42.640;23.370;2023-07-31T06:35:06;7.83;;;7.03;;
5878;SDS011;2965;42.640;23.370;2023-07-31T06:37:32;6.83;;;6.33;;
5878;SDS011;2965;42.640;23.370;2023-07-31T06:39:57;6.33;;;5.73;;
5878;SDS011;2965;42.640;23.370;2023-07-31T06:42:22;6.93;;;6.40;;
5878;SDS011;2965;42.640;23.370;2023-07-31T06:44:48;5.40;;;5.10;;
5878;SDS011;2965;42.640;23.370;2023-07-31T06:47:14;6.53;;;5.90;;
5878;SDS011;2965;42.640;23.370;2023-07-31T06:49:39;7.40;;;6.87;;
5878;SDS011;2965;42.640;23.370;2023-07-31T06:52:04;9.57;;;6.50;;
5878;SDS011;2965;42.640;23.370;2023-07-31T06:54:30;12.20;;;6.50;;
5878;SDS011;2965;42.640;23.370;2023-07-31T06:56:55;6.77;;;6.37;;
5878;SDS011;2965;42.640;23.370;2023-07-31T06:59:21;7.27;;;6.70;;
5878;SDS011;2965;42.640;23.370;2023-07-31T07:01:46;5.40;;;5.07;;
5878;SDS011;2965;42.640;23.370;2023-07-31T07:04:12;6.23;;;5.83;;
5878;SDS011;2965;42.640;23.370;2023-07-31T07:06:37;5.70;;;5.40;;
5878;SDS011;2965;42.640;23.370;2023-07-31T07:09:02;6.40;;;6.00;;
5878;SDS011;2965;42.640;23.370;2023-07-31T07:11:28;8.23;;;5.90;;
5878;SDS011;2965;42.640;23.370;2023-07-31T07:13:53;6.20;;;5.77;;
5878;SDS011;2965;42.640;23.370;2023-07-31T07:16:19;6.37;;;5.87;;
5878;SDS011;2965;42.640;23.370;2023-07-31T07:18:44;6.13;;;5.47;;
5878;SDS011;2965;42.640;23.370;2023-07-31T07:21:09;5.50;;;5.20;;
5878;SDS011;2965;42.640;23.370;2023-07-31T07:23:39;5.00;;;4.70;;
5878;SDS011;2965;42.640;23.370;2023-07-31T07:26:04;4.70;;;4.40;;
5878;SDS011;2965;42.640;23.370;2023-07-31T07:28:30;5.33;;;5.10;;
5878;SDS011;2965;42.640;23.370;2023-07-31T07:30:55;5.53;;;5.23;;
5878;SDS011;2965;42.640;23.370;2023-07-31T07:33:21;4.90;;;4.70;;
5878;SDS011;2965;42.640;23.370;2023-07-31T07:35:46;4.63;;;4.30;;
5878;SDS011;2965;42.640;23.370;2023-07-31T07:38:13;4.63;;;4.43;;
5878;SDS011;2965;42.640;23.370;2023-07-31T07:40:39;5.73;;;5.00;;
5878;SDS011;2965;42.640;23.370;2023-07-31T07:43:05;4.57;;;4.37;;
5878;SDS011;2965;42.640;23.370;2023-07-31T07:45:30;4.50;;;4.40;;
5878;SDS011;2965;42.640;23.370;2023-07-31T07:47:55;4.00;;;3.90;;
5878;SDS011;2965;42.640;23.370;2023-07-31T07:50:21;6.60;;;4.77;;
5878;SDS011;2965;42.640;23.370;2023-07-31T07:52:46;4.63;;;4.43;;
5878;SDS011;2965;42.640;23.370;2023-07-31T07:55:12;4.70;;;4.40;;
5878;SDS011;2965;42.640;23.370;2023-07-31T07:57:37;4.13;;;3.93;;
5878;SDS011;2965;42.640;23.370;2023-07-31T08:00:02;4.90;;;4.60;;
5878;SDS011;2965;42.640;23.370;2023-07-31T08:02:28;4.47;;;4.27;;
5878;SDS011;2965;42.640;23.370;2023-07-31T08:04:53;4.40;;;4.20;;
5878;SDS011;2965;42.640;23.370;2023-07-31T08:07:19;4.73;;;4.53;;
5878;SDS011;2965;42.640;23.370;2023-07-31T08:09:44;4.30;;;4.20;;
5878;SDS011;2965;42.640;23.370;2023-07-31T08:12:09;3.90;;;3.57;;
5878;SDS011;2965;42.640;23.370;2023-07-31T08:14:35;3.80;;;3.60;;
5878;SDS011;2965;42.640;23.370;2023-07-31T08:17:01;4.30;;;4.20;;
5878;SDS011;2965;42.640;23.370;2023-07-31T08:19:27;6.60;;;4.37;;
5878;SDS011;2965;42.640;23.370;2023-07-31T08:21:52;4.40;;;4.20;;
5878;SDS011;2965;42.640;23.370;2023-07-31T08:24:17;4.17;;;3.97;;
5878;SDS011;2965;42.640;23.370;2023-07-31T08:26:43;3.63;;;3.53;;
5878;SDS011;2965;42.640;23.370;2023-07-31T08:29:09;6.63;;;4.57;;
5878;SDS011;2965;42.640;23.370;2023-07-31T08:31:34;5.53;;;5.03;;
5878;SDS011;2965;42.640;23.370;2023-07-31T08:34:00;5.20;;;4.70;;
5878;SDS011;2965;42.640;23.370;2023-07-31T08:36:26;3.70;;;3.43;;
5878;SDS011;2965;42.640;23.370;2023-07-31T08:38:51;3.90;;;3.70;;
5878;SDS011;2965;42.640;23.370;2023-07-31T08:41:17;4.33;;;3.93;;
5878;SDS011;2965;42.640;23.370;2023-07-31T08:43:42;3.70;;;3.60;;
5878;SDS011;2965;42.640;23.370;2023-07-31T08:46:10;3.40;;;3.30;;
5878;SDS011;2965;42.640;23.370;2023-07-31T08:48:35;4.90;;;4.50;;
5878;SDS011;2965;42.640;23.370;2023-07-31T08:51:03;4.90;;;3.70;;
5878;SDS011;2965;42.640;23.370;2023-07-31T08:53:29;4.10;;;3.90;;
5878;SDS011;2965;42.640;23.370;2023-07-31T08:55:54;4.30;;;4.10;;
5878;SDS011;2965;42.640;23.370;2023-07-31T08:58:21;4.50;;;4.30;;
5878;SDS011;2965;42.640;23.370;2023-07-31T09:00:48;6.83;;;4.10;;
5878;SDS011;2965;42.640;23.370;2023-07-31T09:03:17;3.93;;;3.83;;
5878;SDS011;2965;42.640;23.370;2023-07-31T09:05:45;4.30;;;4.10;;
5878;SDS011;2965;42.640;23.370;2023-07-31T09:08:15;4.27;;;4.07;;
5878;SDS011;2965;42.640;23.370;2023-07-31T09:10:46;4.17;;;4.07;;
5878;SDS011;2965;42.640;23.370;2023-07-31T09:13:12;4.43;;;4.03;;
5878;SDS011;2965;42.640;23.370;2023-07-31T09:15:39;4.10;;;3.70;;
5878;SDS011;2965;42.640;23.370;2023-07-31T09:18:06;4.47;;;3.70;;
5878;SDS011;2965;42.640;23.370;2023-07-31T09:20:33;3.57;;;3.27;;
5878;SDS011;2965;42.640;23.370;2023-07-31T09:23:08;4.13;;;3.83;;
5878;SDS011;2965;42.640;23.370;2023-07-31T09:25:37;3.40;;;3.30;;
5878;SDS011;2965;42.640;23.370;2023-07-31T09:28:07;3.83;;;3.63;;
5878;SDS011;2965;42.640;23.370;2023-07-31T09:33:09;3.77;;;3.57;;
5878;SDS011;2965;42.640;23.370;2023-07-31T09:35:34;4.60;;;4.27;;
5878;SDS011;2965;42.640;23.370;2023-07-31T09:38:10;3.87;;;3.67;;
5878;SDS011;2965;42.640;23.370;2023-07-31T09:40:37;3.50;;;3.40;;
5878;SDS011;2965;42.640;23.370;2023-07-31T09:43:08;4.10;;;3.97;;
5878;SDS011;2965;42.640;23.370;2023-07-31T09:45:38;4.00;;;3.90;;
5878;SDS011;2965;42.640;23.370;2023-07-31T09:48:23;4.97;;;4.67;;
5878;SDS011;2965;42.640;23.370;2023-07-31T09:50:50;4.13;;;3.83;;
5878;SDS011;2965;42.640;23.370;2023-07-31T09:53:16;4.33;;;4.13;;
5878;SDS011;2965;42.640;23.370;2023-07-31T09:55:42;4.07;;;3.87;;
5878;SDS011;2965;42.640;23.370;2023-07-31T09:58:08;4.97;;;4.70;;
5878;SDS011;2965;42.640;23.370;2023-07-31T10:00:36;4.73;;;4.63;;
5878;SDS011;2965;42.640;23.370;2023-07-31T10:03:04;6.20;;;4.10;;
5878;SDS011;2965;42.640;23.370;2023-07-31T10:05:34;4.07;;;3.83;;
5878;SDS011;2965;42.640;23.370;2023-07-31T10:08:00;4.50;;;4.30;;
5878;SDS011;2965;42.640;23.370;2023-07-31T10:10:26;4.73;;;4.43;;
5878;SDS011;2965;42.640;23.370;2023-07-31T10:12:52;4.30;;;3.97;;
5878;SDS011;2965;42.640;23.370;2023-07-31T10:15:19;4.60;;;4.30;;
5878;SDS011;2965;42.640;23.370;2023-07-31T10:17:48;3.50;;;3.40;;
5878;SDS011;2965;42.640;23.370;2023-07-31T10:20:14;3.37;;;3.27;;
5878;SDS011;2965;42.640;23.370;2023-07-31T10:22:44;3.40;;;3.30;;
5878;SDS011;2965;42.640;23.370;2023-07-31T10:25:11;3.30;;;2.97;;
5878;SDS011;2965;42.640;23.370;2023-07-31T10:27:37;3.33;;;2.93;;
5878;SDS011;2965;42.640;23.370;2023-07-31T10:30:04;3.33;;;2.90;;
5878;SDS011;2965;42.640;23.370;2023-07-31T10:32:34;3.20;;;3.10;;
5878;SDS011;2965;42.640;23.370;2023-07-31T10:35:01;2.90;;;2.80;;
5878;SDS011;2965;42.640;23.370;2023-07-31T10:37:29;3.40;;;3.20;;
5878;SDS011;2965;42.640;23.370;2023-07-31T10:45:24;2.87;;;2.77;;
5878;SDS011;2965;42.640;23.370;2023-07-31T10:48:00;2.77;;;2.67;;
5878;SDS011;2965;42.640;23.370;2023-07-31T10:50:26;3.57;;;3.47;;
5878;SDS011;2965;42.640;23.370;2023-07-31T10:52:53;2.97;;;2.80;;
5878;SDS011;2965;42.640;23.370;2023-07-31T10:55:27;2.97;;;2.77;;
5878;SDS011;2965;42.640;23.370;2023-07-31T10:57:53;3.03;;;2.90;;
5878;SDS011;2965;42.640;23.370;2023-07-31T11:08:13;9.90;;;3.40;;
5878;SDS011;2965;42.640;23.370;2023-07-31T11:10:51;2.10;;;2.00;;
5878;SDS011;2965;42.640;23.370;2023-07-31T11:13:31;2.60;;;2.40;;
5878;SDS011;2965;42.640;23.370;2023-07-31T11:16:04;8.30;;;2.50;;
5878;SDS011;2965;42.640;23.370;2023-07-31T11:18:30;2.50;;;2.40;;
5878;SDS011;2965;42.640;23.370;2023-07-31T11:20:55;2.40;;;2.30;;
5878;SDS011;2965;42.640;23.370;2023-07-31T11:23:21;4.33;;;2.50;;
5878;SDS011;2965;42.640;23.370;2023-07-31T11:25:47;3.10;;;3.00;;
5878;SDS011;2965;42.640;23.370;2023-07-31T11:28:13;2.73;;;2.63;;
5878;SDS011;2965;42.640;23.370;2023-07-31T11:30:41;3.23;;;2.37;;
5878;SDS011;2965;42.640;23.370;2023-07-31T11:33:08;2.87;;;2.40;;
5878;SDS011;2965;42.640;23.370;2023-07-31T11:35:42;2.57;;;2.47;;
5878;SDS011;2965;42.640;23.370;2023-07-31T11:38:11;3.87;;;2.30;;
5878;SDS011;2965;42.640;23.370;2023-07-31T11:40:43;8.53;;;2.57;;
5878;SDS011;2965;42.640;23.370;2023-07-31T11:43:09;2.30;;;2.20;;
5878;SDS011;2965;42.640;23.370;2023-07-31T11:45:36;3.93;;;2.50;;
5878;SDS011;2965;42.640;23.370;2023-07-31T11:48:04;2.73;;;2.63;;
5878;SDS011;2965;42.640;23.370;2023-07-31T11:50:30;2.90;;;2.70;;
5878;SDS011;2965;42.640;23.370;2023-07-31T11:53:00;3.70;;;3.50;;
5878;SDS011;2965;42.640;23.370;2023-07-31T11:55:32;4.17;;;2.90;;
5878;SDS011;2965;42.640;23.370;2023-07-31T11:57:58;8.13;;;3.27;;
5878;SDS011;2965;42.640;23.370;2023-07-31T12:00:24;3.70;;;3.60;;
5878;SDS011;2965;42.640;23.370;2023-07-31T12:05:23;3.13;;;3.03;;
5878;SDS011;2965;42.640;23.370;2023-07-31T12:07:50;3.50;;;3.30;;
5878;SDS011;2965;42.640;23.370;2023-07-31T12:13:00;3.30;;;3.20;;
5878;SDS011;2965;42.640;23.370;2023-07-31T12:15:37;3.43;;;3.23;;
5878;SDS011;2965;42.640;23.370;2023-07-31T12:18:05;3.63;;;3.53;;
5878;SDS011;2965;42.640;23.370;2023-07-31T12:20:32;3.37;;;3.27;;
5878;SDS011;2965;42.640;23.370;2023-07-31T12:22:58;3.33;;;3.20;;
5878;SDS011;2965;42.640;23.370;2023-07-31T12:25:28;3.50;;;3.40;;
5878;SDS011;2965;42.640;23.370;2023-07-31T12:27:57;3.97;;;3.87;;
5878;SDS011;2965;42.640;23.370;2023-07-31T12:30:31;9.13;;;4.00;;
5878;SDS011;2965;42.640;23.370;2023-07-31T12:32:57;3.80;;;3.70;;
5878;SDS011;2965;42.640;23.370;2023-07-31T12:35:34;5.90;;;5.70;;
5878;SDS011;2965;42.640;23.370;2023-07-31T12:38:01;5.23;;;5.03;;
5878;SDS011;2965;42.640;23.370;2023-07-31T12:40:27;7.50;;;6.87;;
5878;SDS011;2965;42.640;23.370;2023-07-31T12:42:52;6.30;;;6.00;;
5878;SDS011;2965;42.640;23.370;2023-07-31T12:45:18;6.80;;;6.50;;
5878;SDS011;2965;42.640;23.370;2023-07-31T12:47:43;6.37;;;6.07;;
5878;SDS011;2965;42.640;23.370;2023-07-31T12:50:09;6.03;;;5.70;;
5878;SDS011;2965;42.640;23.370;2023-07-31T12:52:34;6.10;;;5.80;;
5878;SDS011;2965;42.640;23.370;2023-07-31T12:55:00;5.40;;;5.10;;
5878;SDS011;2965;42.640;23.370;2023-07-31T12:57:25;5.60;;;5.30;;
5878;SDS011;2965;42.640;23.370;2023-07-31T12:59:50;6.00;;;5.80;;
5878;SDS011;2965;42.640;23.370;2023-07-31T13:02:16;6.23;;;5.00;;
5878;SDS011;2965;42.640;23.370;2023-07-31T13:04:41;5.83;;;5.53;;
5878;SDS011;2965;42.640;23.370;2023-07-31T13:07:06;5.90;;;5.67;;
5878;SDS011;2965;42.640;23.370;2023-07-31T13:09:32;6.90;;;6.50;;
5878;SDS011;2965;42.640;23.370;2023-07-31T13:11:58;7.00;;;6.60;;
5878;SDS011;2965;42.640;23.370;2023-07-31T13:14:23;7.33;;;6.83;;
5878;SDS011;2965;42.640;23.370;2023-07-31T13:16:48;6.90;;;6.30;;
5878;SDS011;2965;42.640;23.370;2023-07-31T13:19:14;6.60;;;6.30;;
5878;SDS011;2965;42.640;23.370;2023-07-31T13:21:39;7.70;;;7.20;;
5878;SDS011;2965;42.640;23.370;2023-07-31T13:24:05;7.00;;;6.40;;
5878;SDS011;2965;42.640;23.370;2023-07-31T13:26:30;7.53;;;6.70;;
5878;SDS011;2965;42.640;23.370;2023-07-31T13:28:56;7.80;;;7.00;;
5878;SDS011;2965;42.640;23.370;2023-07-31T13:31:21;7.37;;;6.90;;
5878;SDS011;2965;42.640;23.370;2023-07-31T13:33:46;7.03;;;6.40;;
5878;SDS011;2965;42.640;23.370;2023-07-31T13:36:12;11.03;;;7.43;;
5878;SDS011;2965;42.640;23.370;2023-07-31T13:38:39;6.40;;;5.97;;
5878;SDS011;2965;42.640;23.370;2023-07-31T13:41:04;6.77;;;6.13;;
5878;SDS011;2965;42.640;23.370;2023-07-31T13:43:30;6.13;;;5.80;;
5878;SDS011;2965;42.640;23.370;2023-07-31T13:45:56;5.60;;;5.30;;
5878;SDS011;2965;42.640;23.370;2023-07-31T13:48:21;5.90;;;5.40;;
5878;SDS011;2965;42.640;23.370;2023-07-31T13:50:47;6.00;;;5.70;;
5878;SDS011;2965;42.640;23.370;2023-07-31T13:53:12;5.27;;;5.17;;
5878;SDS011;2965;42.640;23.370;2023-07-31T13:55:37;5.90;;;5.50;;
5878;SDS011;2965;42.640;23.370;2023-07-31T13:58:03;5.77;;;5.43;;
5878;SDS011;2965;42.640;23.370;2023-07-31T14:00:28;5.87;;;5.60;;
5878;SDS011;2965;42.640;23.370;2023-07-31T14:02:54;5.53;;;5.33;;
5878;SDS011;2965;42.640;23.370;2023-07-31T14:05:20;5.17;;;4.97;;
5878;SDS011;2965;42.640;23.370;2023-07-31T14:07:45;8.30;;;5.27;;
5878;SDS011;2965;42.640;23.370;2023-07-31T14:10:11;5.70;;;5.50;;
5878;SDS011;2965;42.640;23.370;2023-07-31T14:12:36;5.03;;;4.63;;
5878;SDS011;2965;42.640;23.370;2023-07-31T14:15:01;5.00;;;4.90;;
5878;SDS011;2965;42.640;23.370;2023-07-31T14:17:28;4.43;;;4.30;;
5878;SDS011;2965;42.640;23.370;2023-07-31T14:19:53;5.70;;;5.40;;
5878;SDS011;2965;42.640;23.370;2023-07-31T14:22:31;5.70;;;5.30;;
5878;SDS011;2965;42.640;23.370;2023-07-31T14:24:58;5.37;;;4.97;;
5878;SDS011;2965;42.640;23.370;2023-07-31T14:27:23;5.07;;;4.87;;
5878;SDS011;2965;42.640;23.370;2023-07-31T14:29:49;4.87;;;4.53;;
5878;SDS011;2965;42.640;23.370;2023-07-31T14:32:14;5.60;;;5.40;;
5878;SDS011;2965;42.640;23.370;2023-07-31T14:34:40;5.03;;;4.83;;
5878;SDS011;2965;42.640;23.370;2023-07-31T14:37:06;5.83;;;5.43;;
5878;SDS011;2965;42.640;23.370;2023-07-31T14:39:31;5.50;;;5.40;;
5878;SDS011;2965;42.640;23.370;2023-07-31T14:41:56;4.67;;;4.37;;
5878;SDS011;2965;42.640;23.370;2023-07-31T14:44:22;6.13;;;5.57;;
5878;SDS011;2965;42.640;23.370;2023-07-31T14:46:47;5.27;;;5.07;;
5878;SDS011;2965;42.640;23.370;2023-07-31T14:49:12;5.43;;;5.03;;
5878;SDS011;2965;42.640;23.370;2023-07-31T14:51:38;5.53;;;5.33;;
5878;SDS011;2965;42.640;23.370;2023-07-31T14:54:03;4.70;;;4.50;;
5878;SDS011;2965;42.640;23.370;2023-07-31T14:56:29;5.47;;;5.10;;
5878;SDS011;2965;42.640;23.370;2023-07-31T14:58:54;5.03;;;4.50;;
5878;SDS011;2965;42.640;23.370;2023-07-31T15:01:19;4.10;;;3.90;;
5878;SDS011;2965;42.640;23.370;2023-07-31T15:03:45;5.10;;;4.90;;
5878;SDS011;2965;42.640;23.370;2023-07-31T15:06:10;4.90;;;4.70;;
5878;SDS011;2965;42.640;23.370;2023-07-31T15:08:37;6.00;;;5.60;;
5878;SDS011;2965;42.640;23.370;2023-07-31T15:11:03;5.10;;;4.70;;
5878;SDS011;2965;42.640;23.370;2023-07-31T15:13:28;4.37;;;4.23;;
5878;SDS011;2965;42.640;23.370;2023-07-31T15:15:54;5.73;;;5.33;;
5878;SDS011;2965;42.640;23.370;2023-07-31T15:18:20;4.60;;;4.50;;
5878;SDS011;2965;42.640;23.370;2023-07-31T15:20:46;4.27;;;4.13;;
5878;SDS011;2965;42.640;23.370;2023-07-31T15:23:12;4.80;;;4.70;;
5878;SDS011;2965;42.640;23.370;2023-07-31T15:25:37;4.30;;;4.20;;
5878;SDS011;2965;42.640;23.370;2023-07-31T15:28:02;4.80;;;4.70;;
5878;SDS011;2965;42.640;23.370;2023-07-31T15:30:30;5.20;;;4.43;;
5878;SDS011;2965;42.640;23.370;2023-07-31T15:32:55;4.73;;;4.53;;
5878;SDS011;2965;42.640;23.370;2023-07-31T15:35:21;4.23;;;4.10;;
5878;SDS011;2965;42.640;23.370;2023-07-31T15:37:46;4.13;;;3.83;;
5878;SDS011;2965;42.640;23.370;2023-07-31T15:40:12;4.80;;;3.80;;
5878;SDS011;2965;42.640;23.370;2023-07-31T15:42:37;3.53;;;3.40;;
5878;SDS011;2965;42.640;23.370;2023-07-31T15:45:05;3.77;;;3.57;;
5878;SDS011;2965;42.640;23.370;2023-07-31T15:47:31;3.53;;;3.43;;
5878;SDS011;2965;42.640;23.370;2023-07-31T15:49:57;5.97;;;4.70;;
5878;SDS011;2965;42.640;23.370;2023-07-31T15:52:22;3.00;;;2.80;;
5878;SDS011;2965;42.640;23.370;2023-07-31T15:54:48;3.20;;;3.10;;
5878;SDS011;2965;42.640;23.370;2023-07-31T15:57:13;3.30;;;3.00;;
5878;SDS011;2965;42.640;23.370;2023-07-31T15:59:38;3.20;;;3.10;;
5878;SDS011;2965;42.640;23.370;2023-07-31T16:02:04;5.90;;;3.63;;
5878;SDS011;2965;42.640;23.370;2023-07-31T16:04:29;2.77;;;2.67;;
5878;SDS011;2965;42.640;23.370;2023-07-31T16:06:54;3.80;;;3.50;;
5878;SDS011;2965;42.640;23.370;2023-07-31T16:09:20;3.20;;;3.10;;
5878;SDS011;2965;42.640;23.370;2023-07-31T16:11:46;3.33;;;3.23;;
5878;SDS011;2965;42.640;23.370;2023-07-31T16:14:12;4.80;;;2.30;;
5878;SDS011;2965;42.640;23.370;2023-07-31T16:16:37;3.03;;;2.90;;
5878;SDS011;2965;42.640;23.370;2023-07-31T16:19:03;2.77;;;2.67;;
5878;SDS011;2965;42.640;23.370;2023-07-31T16:21:28;2.53;;;2.43;;
5878;SDS011;2965;42.640;23.370;2023-07-31T16:23:54;3.70;;;3.40;;
5878;SDS011;2965;42.640;23.370;2023-07-31T16:26:20;2.53;;;2.40;;
5878;SDS011;2965;42.640;23.370;2023-07-31T16:28:45;2.70;;;2.60;;
5878;SDS011;2965;42.640;23.370;2023-07-31T16:31:11;2.93;;;2.83;;
5878;SDS011;2965;42.640;23.370;2023-07-31T16:33:36;2.60;;;2.50;;
5878;SDS011;2965;42.640;23.370;2023-07-31T16:36:01;3.00;;;2.70;;
5878;SDS011;2965;42.640;23.370;2023-07-31T16:38:27;3.20;;;2.87;;
5878;SDS011;2965;42.640;23.370;2023-07-31T16:40:52;2.37;;;2.27;;
5878;SDS011;2965;42.640;23.370;2023-07-31T16:43:18;3.10;;;3.00;;
5878;SDS011;2965;42.640;23.370;2023-07-31T16:45:43;2.83;;;2.73;;
5878;SDS011;2965;42.640;23.370;2023-07-31T16:48:08;2.83;;;2.73;;
5878;SDS011;2965;42.640;23.370;2023-07-31T16:50:34;3.10;;;3.00;;
5878;SDS011;2965;42.640;23.370;2023-07-31T16:52:59;7.13;;;2.77;;
5878;SDS011;2965;42.640;23.370;2023-07-31T16:55:25;3.10;;;3.00;;
5878;SDS011;2965;42.640;23.370;2023-07-31T16:57:50;6.63;;;2.57;;
5878;SDS011;2965;42.640;23.370;2023-07-31T17:00:15;3.40;;;3.10;;
5878;SDS011;2965;42.640;23.370;2023-07-31T17:02:41;3.07;;;2.97;;
5878;SDS011;2965;42.640;23.370;2023-07-31T17:05:06;2.77;;;2.67;;
5878;SDS011;2965;42.640;23.370;2023-07-31T17:07:33;2.60;;;2.50;;
5878;SDS011;2965;42.640;23.370;2023-07-31T17:09:58;2.80;;;2.70;;
5878;SDS011;2965;42.640;23.370;2023-07-31T17:12:23;3.23;;;3.13;;
5878;SDS011;2965;42.640;23.370;2023-07-31T17:14:49;3.20;;;2.90;;
5878;SDS011;2965;42.640;23.370;2023-07-31T17:17:14;3.37;;;3.00;;
5878;SDS011;2965;42.640;23.370;2023-07-31T17:19:39;2.50;;;2.40;;
5878;SDS011;2965;42.640;23.370;2023-07-31T17:22:05;2.67;;;2.57;;
5878;SDS011;2965;42.640;23.370;2023-07-31T17:24:30;2.30;;;2.20;;
5878;SDS011;2965;42.640;23.370;2023-07-31T17:26:56;2.57;;;2.47;;
5878;SDS011;2965;42.640;23.370;2023-07-31T17:29:26;7.43;;;3.40;;
5878;SDS011;2965;42.640;23.370;2023-07-31T17:31:53;2.30;;;2.20;;
5878;SDS011;2965;42.640;23.370;2023-07-31T17:34:18;3.00;;;2.90;;
5878;SDS011;2965;42.640;23.370;2023-07-31T17:36:44;2.90;;;2.80;;
5878;SDS011;2965;42.640;23.370;2023-07-31T17:39:09;2.60;;;2.50;;
5878;SDS011;2965;42.640;23.370;2023-07-31T17:41:35;2.93;;;2.77;;
5878;SDS011;2965;42.640;23.370;2023-07-31T17:44:00;3.30;;;3.20;;
5878;SDS011;2965;42.640;23.370;2023-07-31T17:46:26;3.27;;;3.07;;
5878;SDS011;2965;42.640;23.370;2023-07-31T17:48:51;3.30;;;3.00;;
5878;SDS011;2965;42.640;23.370;2023-07-31T17:51:16;2.93;;;2.83;;
5878;SDS011;2965;42.640;23.370;2023-07-31T17:53:42;13.50;;;3.03;;
5878;SDS011;2965;42.640;23.370;2023-07-31T17:56:07;3.43;;;3.33;;
5878;SDS011;2965;42.640;23.370;2023-07-31T17:58:33;4.07;;;3.87;;
5878;SDS011;2965;42.640;23.370;2023-07-31T18:00:58;3.70;;;3.50;;
5878;SDS011;2965;42.640;23.370;2023-07-31T18:03:24;4.10;;;4.00;;
5878;SDS011;2965;42.640;23.370;2023-07-31T18:05:50;4.40;;;4.20;;
5878;SDS011;2965;42.640;23.370;2023-07-31T18:08:16;4.27;;;4.07;;
5878;SDS011;2965;42.640;23.370;2023-07-31T18:10:48;5.00;;;3.67;;
5878;SDS011;2965;42.640;23.370;2023-07-31T18:13:13;4.27;;;3.93;;
5878;SDS011;2965;42.640;23.370;2023-07-31T18:15:43;3.70;;;3.57;;
5878;SDS011;2965;42.640;23.370;2023-07-31T18:18:10;3.53;;;3.43;;
5878;SDS011;2965;42.640;23.370;2023-07-31T18:20:35;4.30;;;4.10;;
5878;SDS011;2965;42.640;23.370;2023-07-31T18:23:01;3.80;;;3.70;;
5878;SDS011;2965;42.640;23.370;2023-07-31T18:25:27;4.00;;;3.80;;
5878;SDS011;2965;42.640;23.370;2023-07-31T18:27:53;3.70;;;3.40;;
5878;SDS011;2965;42.640;23.370;2023-07-31T18:30:18;4.37;;;4.27;;
5878;SDS011;2965;42.640;23.370;2023-07-31T18:32:44;5.20;;;4.97;;
5878;SDS011;2965;42.640;23.370;2023-07-31T18:35:10;3.80;;;3.60;;
5878;SDS011;2965;42.640;23.370;2023-07-31T18:37:35;4.63;;;4.33;;
5878;SDS011;2965;42.640;23.370;2023-07-31T18:40:01;3.73;;;3.53;;
5878;SDS011;2965;42.640;23.370;2023-07-31T18:42:26;3.60;;;3.40;;
5878;SDS011;2965;42.640;23.370;2023-07-31T18:44:51;3.60;;;3.40;;
5878;SDS011;2965;42.640;23.370;2023-07-31T18:47:17;3.40;;;3.30;;
5878;SDS011;2965;42.640;23.370;2023-07-31T18:49:42;6.53;;;3.40;;
5878;SDS011;2965;42.640;23.370;2023-07-31T18:52:08;2.90;;;2.70;;
5878;SDS011;2965;42.640;23.370;2023-07-31T18:54:34;3.37;;;3.07;;
5878;SDS011;2965;42.640;23.370;2023-07-31T18:57:00;3.87;;;3.67;;
5878;SDS011;2965;42.640;23.370;2023-07-31T18:59:25;5.33;;;4.83;;
5878;SDS011;2965;42.640;23.370;2023-07-31T19:01:51;3.73;;;3.53;;
5878;SDS011;2965;42.640;23.370;2023-07-31T19:04:16;6.20;;;3.80;;
5878;SDS011;2965;42.640;23.370;2023-07-31T19:06:41;4.40;;;4.30;;
5878;SDS011;2965;42.640;23.370;2023-07-31T19:09:09;4.57;;;4.27;;
5878;SDS011;2965;42.640;23.370;2023-07-31T19:11:35;4.00;;;3.80;;
5878;SDS011;2965;42.640;23.370;2023-07-31T19:14:01;4.40;;;4.10;;